sensor_id;sensor_type;location;lat;lon;timestamp;P1;durP1;ratioP1;P2;durP2;ratioP2
10365;SDS011;5229;41.820;23.490;2022-10-16T00:01:37;2.57;;;2.13;;
10365;SDS011;5229;41.820;23.490;2022-10-16T00:04:05;3.50;;;2.20;;
10365;SDS011;5229;41.820;23.490;2022-10-16T00:06:32;2.87;;;2.20;;
10365;SDS011;5229;41.820;23.490;2022-10-16T00:08:59;5.40;;;2.30;;
10365;SDS011;5229;41.820;23.490;2022-10-16T00:11:27;3.57;;;1.97;;
10365;SDS011;5229;41.820;23.490;2022-10-16T00:13:57;2.30;;;2.10;;
10365;SDS011;5229;41.820;23.490;2022-10-16T00:16:25;2.53;;;2.10;;
10365;SDS011;5229;41.820;23.490;2022-10-16T00:18:53;2.57;;;2.30;;
10365;SDS011;5229;41.820;23.490;2022-10-16T00:21:22;3.93;;;2.70;;
10365;SDS011;5229;41.820;23.490;2022-10-16T00:23:50;2.70;;;2.43;;
10365;SDS011;5229;41.820;23.490;2022-10-16T00:26:18;2.83;;;2.50;;
10365;SDS011;5229;41.820;23.490;2022-10-16T00:28:45;4.80;;;3.00;;
10365;SDS011;5229;41.820;23.490;2022-10-16T00:31:13;2.93;;;2.63;;
10365;SDS011;5229;41.820;23.490;2022-10-16T00:33:40;3.70;;;2.60;;
10365;SDS011;5229;41.820;23.490;2022-10-16T00:36:08;4.90;;;2.60;;
10365;SDS011;5229;41.820;23.490;2022-10-16T00:38:38;3.20;;;2.60;;
10365;SDS011;5229;41.820;23.490;2022-10-16T00:41:06;3.17;;;2.53;;
10365;SDS011;5229;41.820;23.490;2022-10-16T00:43:37;3.40;;;2.80;;
10365;SDS011;5229;41.820;23.490;2022-10-16T00:46:10;5.47;;;2.50;;
10365;SDS011;5229;41.820;23.490;2022-10-16T00:48:42;3.57;;;2.70;;
10365;SDS011;5229;41.820;23.490;2022-10-16T00:51:14;6.17;;;2.63;;
10365;SDS011;5229;41.820;23.490;2022-10-16T00:53:43;3.47;;;2.83;;
10365;SDS011;5229;41.820;23.490;2022-10-16T00:56:11;6.47;;;2.83;;
10365;SDS011;5229;41.820;23.490;2022-10-16T00:58:38;3.03;;;2.73;;
10365;SDS011;5229;41.820;23.490;2022-10-16T01:01:04;4.70;;;2.77;;
10365;SDS011;5229;41.820;23.490;2022-10-16T01:03:32;2.83;;;2.60;;
10365;SDS011;5229;41.820;23.490;2022-10-16T01:06:05;2.50;;;2.30;;
10365;SDS011;5229;41.820;23.490;2022-10-16T01:08:49;3.37;;;2.90;;
10365;SDS011;5229;41.820;23.490;2022-10-16T01:11:33;3.23;;;2.63;;
10365;SDS011;5229;41.820;23.490;2022-10-16T01:14:13;2.80;;;2.60;;
10365;SDS011;5229;41.820;23.490;2022-10-16T01:16:46;3.10;;;2.80;;
10365;SDS011;5229;41.820;23.490;2022-10-16T01:19:20;4.87;;;2.90;;
10365;SDS011;5229;41.820;23.490;2022-10-16T01:21:59;3.00;;;2.63;;
10365;SDS011;5229;41.820;23.490;2022-10-16T01:24:31;3.07;;;2.67;;
10365;SDS011;5229;41.820;23.490;2022-10-16T01:27:12;3.83;;;2.60;;
10365;SDS011;5229;41.820;23.490;2022-10-16T01:29:47;4.47;;;2.40;;
10365;SDS011;5229;41.820;23.490;2022-10-16T01:32:28;2.93;;;2.60;;
10365;SDS011;5229;41.820;23.490;2022-10-16T01:35:01;2.93;;;2.60;;
10365;SDS011;5229;41.820;23.490;2022-10-16T01:37:36;3.00;;;2.50;;
10365;SDS011;5229;41.820;23.490;2022-10-16T01:40:11;4.37;;;2.40;;
10365;SDS011;5229;41.820;23.490;2022-10-16T01:42:45;2.73;;;2.37;;
10365;SDS011;5229;41.820;23.490;2022-10-16T01:45:15;2.90;;;2.70;;
10365;SDS011;5229;41.820;23.490;2022-10-16T01:47:45;3.30;;;3.00;;
10365;SDS011;5229;41.820;23.490;2022-10-16T01:50:14;2.70;;;2.43;;
10365;SDS011;5229;41.820;23.490;2022-10-16T01:52:52;3.10;;;2.60;;
10365;SDS011;5229;41.820;23.490;2022-10-16T01:55:24;3.40;;;2.60;;
10365;SDS011;5229;41.820;23.490;2022-10-16T01:57:58;5.00;;;2.60;;
10365;SDS011;5229;41.820;23.490;2022-10-16T02:00:30;2.53;;;2.20;;
10365;SDS011;5229;41.820;23.490;2022-10-16T02:02:59;4.70;;;2.33;;
10365;SDS011;5229;41.820;23.490;2022-10-16T02:05:30;3.23;;;2.50;;
10365;SDS011;5229;41.820;23.490;2022-10-16T02:08:00;2.77;;;2.53;;
10365;SDS011;5229;41.820;23.490;2022-10-16T02:10:27;2.60;;;2.40;;
10365;SDS011;5229;41.820;23.490;2022-10-16T02:12:59;4.27;;;2.93;;
10365;SDS011;5229;41.820;23.490;2022-10-16T02:15:31;3.50;;;2.90;;
10365;SDS011;5229;41.820;23.490;2022-10-16T02:17:57;2.87;;;2.53;;
10365;SDS011;5229;41.820;23.490;2022-10-16T02:20:25;5.40;;;2.87;;
10365;SDS011;5229;41.820;23.490;2022-10-16T02:22:56;2.57;;;2.37;;
10365;SDS011;5229;41.820;23.490;2022-10-16T02:25:26;2.57;;;2.37;;
10365;SDS011;5229;41.820;23.490;2022-10-16T02:27:59;3.77;;;3.20;;
10365;SDS011;5229;41.820;23.490;2022-10-16T02:30:30;2.87;;;2.47;;
10365;SDS011;5229;41.820;23.490;2022-10-16T02:33:01;2.83;;;2.40;;
10365;SDS011;5229;41.820;23.490;2022-10-16T02:35:30;3.20;;;2.47;;
10365;SDS011;5229;41.820;23.490;2022-10-16T02:37:58;3.10;;;2.80;;
10365;SDS011;5229;41.820;23.490;2022-10-16T02:40:25;2.77;;;2.10;;
10365;SDS011;5229;41.820;23.490;2022-10-16T02:42:54;3.10;;;2.73;;
10365;SDS011;5229;41.820;23.490;2022-10-16T02:45:23;2.83;;;2.53;;
10365;SDS011;5229;41.820;23.490;2022-10-16T02:47:50;2.53;;;2.33;;
10365;SDS011;5229;41.820;23.490;2022-10-16T02:50:17;2.83;;;2.53;;
10365;SDS011;5229;41.820;23.490;2022-10-16T02:52:44;2.90;;;2.60;;
10365;SDS011;5229;41.820;23.490;2022-10-16T02:55:11;3.47;;;3.00;;
10365;SDS011;5229;41.820;23.490;2022-10-16T02:57:38;2.80;;;2.60;;
10365;SDS011;5229;41.820;23.490;2022-10-16T03:00:05;3.37;;;2.90;;
10365;SDS011;5229;41.820;23.490;2022-10-16T03:02:35;3.43;;;2.43;;
10365;SDS011;5229;41.820;23.490;2022-10-16T03:05:01;3.27;;;2.87;;
10365;SDS011;5229;41.820;23.490;2022-10-16T03:07:28;3.67;;;2.60;;
10365;SDS011;5229;41.820;23.490;2022-10-16T03:09:55;3.03;;;2.70;;
10365;SDS011;5229;41.820;23.490;2022-10-16T03:12:25;2.60;;;2.30;;
10365;SDS011;5229;41.820;23.490;2022-10-16T03:14:51;3.33;;;2.77;;
10365;SDS011;5229;41.820;23.490;2022-10-16T03:17:18;3.00;;;2.70;;
10365;SDS011;5229;41.820;23.490;2022-10-16T03:19:47;3.20;;;2.30;;
10365;SDS011;5229;41.820;23.490;2022-10-16T03:22:13;3.60;;;2.60;;
10365;SDS011;5229;41.820;23.490;2022-10-16T03:24:40;2.97;;;2.73;;
10365;SDS011;5229;41.820;23.490;2022-10-16T03:27:07;3.90;;;2.60;;
10365;SDS011;5229;41.820;23.490;2022-10-16T03:29:34;3.87;;;2.60;;
10365;SDS011;5229;41.820;23.490;2022-10-16T03:32:01;4.13;;;3.00;;
10365;SDS011;5229;41.820;23.490;2022-10-16T03:34:29;3.10;;;2.80;;
10365;SDS011;5229;41.820;23.490;2022-10-16T03:36:57;3.40;;;2.70;;
10365;SDS011;5229;41.820;23.490;2022-10-16T03:39:24;4.83;;;2.80;;
10365;SDS011;5229;41.820;23.490;2022-10-16T03:41:51;4.07;;;2.70;;
10365;SDS011;5229;41.820;23.490;2022-10-16T03:44:18;2.87;;;2.57;;
10365;SDS011;5229;41.820;23.490;2022-10-16T03:46:44;4.40;;;2.70;;
10365;SDS011;5229;41.820;23.490;2022-10-16T03:49:11;3.47;;;2.70;;
10365;SDS011;5229;41.820;23.490;2022-10-16T03:51:38;6.33;;;2.83;;
10365;SDS011;5229;41.820;23.490;2022-10-16T03:54:06;3.53;;;2.87;;
10365;SDS011;5229;41.820;23.490;2022-10-16T03:56:33;3.33;;;2.77;;
10365;SDS011;5229;41.820;23.490;2022-10-16T03:59:00;4.80;;;3.13;;
10365;SDS011;5229;41.820;23.490;2022-10-16T04:01:27;3.30;;;3.00;;
10365;SDS011;5229;41.820;23.490;2022-10-16T04:03:53;3.77;;;2.77;;
10365;SDS011;5229;41.820;23.490;2022-10-16T04:06:20;2.93;;;2.67;;
10365;SDS011;5229;41.820;23.490;2022-10-16T04:08:47;4.07;;;2.50;;
10365;SDS011;5229;41.820;23.490;2022-10-16T04:11:15;2.97;;;2.50;;
10365;SDS011;5229;41.820;23.490;2022-10-16T04:13:42;5.20;;;2.90;;
10365;SDS011;5229;41.820;23.490;2022-10-16T04:16:09;3.20;;;2.90;;
10365;SDS011;5229;41.820;23.490;2022-10-16T04:18:36;3.07;;;2.87;;
10365;SDS011;5229;41.820;23.490;2022-10-16T04:21:03;4.33;;;2.83;;
10365;SDS011;5229;41.820;23.490;2022-10-16T04:23:30;6.50;;;2.83;;
10365;SDS011;5229;41.820;23.490;2022-10-16T04:25:57;3.93;;;3.13;;
10365;SDS011;5229;41.820;23.490;2022-10-16T04:28:26;4.87;;;3.17;;
10365;SDS011;5229;41.820;23.490;2022-10-16T04:30:53;5.80;;;3.10;;
10365;SDS011;5229;41.820;23.490;2022-10-16T04:33:20;3.20;;;2.83;;
10365;SDS011;5229;41.820;23.490;2022-10-16T04:35:46;8.97;;;3.13;;
10365;SDS011;5229;41.820;23.490;2022-10-16T04:38:13;5.03;;;2.83;;
10365;SDS011;5229;41.820;23.490;2022-10-16T04:40:41;3.63;;;2.90;;
10365;SDS011;5229;41.820;23.490;2022-10-16T04:43:08;3.20;;;2.90;;
10365;SDS011;5229;41.820;23.490;2022-10-16T04:45:37;3.30;;;2.80;;
10365;SDS011;5229;41.820;23.490;2022-10-16T04:48:03;3.57;;;3.27;;
10365;SDS011;5229;41.820;23.490;2022-10-16T04:50:30;3.43;;;2.87;;
10365;SDS011;5229;41.820;23.490;2022-10-16T04:52:57;5.33;;;2.73;;
10365;SDS011;5229;41.820;23.490;2022-10-16T04:55:24;4.03;;;2.70;;
10365;SDS011;5229;41.820;23.490;2022-10-16T04:57:51;3.57;;;3.27;;
10365;SDS011;5229;41.820;23.490;2022-10-16T05:00:18;3.93;;;2.93;;
10365;SDS011;5229;41.820;23.490;2022-10-16T05:02:46;2.87;;;2.53;;
10365;SDS011;5229;41.820;23.490;2022-10-16T05:05:13;4.87;;;2.47;;
10365;SDS011;5229;41.820;23.490;2022-10-16T05:07:40;3.27;;;2.57;;
10365;SDS011;5229;41.820;23.490;2022-10-16T05:10:07;4.73;;;2.90;;
10365;SDS011;5229;41.820;23.490;2022-10-16T05:12:34;3.30;;;2.90;;
10365;SDS011;5229;41.820;23.490;2022-10-16T05:15:00;3.17;;;2.87;;
10365;SDS011;5229;41.820;23.490;2022-10-16T05:17:27;2.90;;;2.60;;
10365;SDS011;5229;41.820;23.490;2022-10-16T05:19:55;3.23;;;2.87;;
10365;SDS011;5229;41.820;23.490;2022-10-16T05:22:22;3.50;;;2.83;;
10365;SDS011;5229;41.820;23.490;2022-10-16T05:24:49;2.77;;;2.43;;
10365;SDS011;5229;41.820;23.490;2022-10-16T05:27:16;3.00;;;2.40;;
10365;SDS011;5229;41.820;23.490;2022-10-16T05:29:44;2.40;;;2.20;;
10365;SDS011;5229;41.820;23.490;2022-10-16T05:32:12;4.40;;;2.47;;
10365;SDS011;5229;41.820;23.490;2022-10-16T05:34:39;3.87;;;2.47;;
10365;SDS011;5229;41.820;23.490;2022-10-16T05:37:07;2.47;;;2.10;;
10365;SDS011;5229;41.820;23.490;2022-10-16T05:39:34;2.87;;;2.20;;
10365;SDS011;5229;41.820;23.490;2022-10-16T05:42:02;2.20;;;1.90;;
10365;SDS011;5229;41.820;23.490;2022-10-16T05:44:28;3.07;;;2.03;;
10365;SDS011;5229;41.820;23.490;2022-10-16T05:46:56;2.40;;;2.20;;
10365;SDS011;5229;41.820;23.490;2022-10-16T05:49:22;3.37;;;1.97;;
10365;SDS011;5229;41.820;23.490;2022-10-16T05:51:49;2.47;;;1.80;;
10365;SDS011;5229;41.820;23.490;2022-10-16T05:54:18;1.80;;;1.70;;
10365;SDS011;5229;41.820;23.490;2022-10-16T05:56:45;2.03;;;1.87;;
10365;SDS011;5229;41.820;23.490;2022-10-16T05:59:11;2.77;;;2.00;;
10365;SDS011;5229;41.820;23.490;2022-10-16T06:01:38;3.70;;;2.27;;
10365;SDS011;5229;41.820;23.490;2022-10-16T06:04:05;2.33;;;1.90;;
10365;SDS011;5229;41.820;23.490;2022-10-16T06:06:32;2.47;;;2.10;;
10365;SDS011;5229;41.820;23.490;2022-10-16T06:09:01;3.00;;;1.60;;
10365;SDS011;5229;41.820;23.490;2022-10-16T06:11:30;3.05;;;1.90;;
10365;SDS011;5229;41.820;23.490;2022-10-16T06:14:00;2.28;;;2.08;;
10365;SDS011;5229;41.820;23.490;2022-10-16T06:16:31;2.47;;;2.25;;
10365;SDS011;5229;41.820;23.490;2022-10-16T06:18:59;5.22;;;2.22;;
10365;SDS011;5229;41.820;23.490;2022-10-16T06:21:27;4.10;;;2.10;;
10365;SDS011;5229;41.820;23.490;2022-10-16T06:23:55;2.50;;;2.30;;
10365;SDS011;5229;41.820;23.490;2022-10-16T06:26:23;2.22;;;2.00;;
10365;SDS011;5229;41.820;23.490;2022-10-16T06:28:53;2.83;;;2.10;;
10365;SDS011;5229;41.820;23.490;2022-10-16T06:31:20;2.35;;;2.15;;
10365;SDS011;5229;41.820;23.490;2022-10-16T06:33:50;5.22;;;2.50;;
10365;SDS011;5229;41.820;23.490;2022-10-16T06:36:17;2.40;;;2.15;;
10365;SDS011;5229;41.820;23.490;2022-10-16T06:38:45;2.88;;;2.38;;
10365;SDS011;5229;41.820;23.490;2022-10-16T06:41:15;3.88;;;2.08;;
10365;SDS011;5229;41.820;23.490;2022-10-16T06:43:43;2.67;;;1.85;;
10365;SDS011;5229;41.820;23.490;2022-10-16T06:46:13;3.55;;;2.50;;
10365;SDS011;5229;41.820;23.490;2022-10-16T06:48:41;4.00;;;2.20;;
10365;SDS011;5229;41.820;23.490;2022-10-16T06:51:09;4.05;;;2.30;;
10365;SDS011;5229;41.820;23.490;2022-10-16T06:53:41;2.30;;;2.10;;
10365;SDS011;5229;41.820;23.490;2022-10-16T06:56:09;3.17;;;2.25;;
10365;SDS011;5229;41.820;23.490;2022-10-16T06:58:41;3.30;;;2.80;;
10365;SDS011;5229;41.820;23.490;2022-10-16T07:01:08;2.50;;;2.35;;
10365;SDS011;5229;41.820;23.490;2022-10-16T07:03:38;3.08;;;2.78;;
10365;SDS011;5229;41.820;23.490;2022-10-16T07:06:06;3.65;;;3.13;;
10365;SDS011;5229;41.820;23.490;2022-10-16T07:08:35;3.55;;;3.05;;
10365;SDS011;5229;41.820;23.490;2022-10-16T07:11:04;4.25;;;3.53;;
10365;SDS011;5229;41.820;23.490;2022-10-16T07:13:32;4.88;;;4.13;;
10365;SDS011;5229;41.820;23.490;2022-10-16T07:16:03;5.97;;;4.50;;
10365;SDS011;5229;41.820;23.490;2022-10-16T07:18:31;5.70;;;4.10;;
10365;SDS011;5229;41.820;23.490;2022-10-16T07:21:04;4.60;;;4.20;;
10365;SDS011;5229;41.820;23.490;2022-10-16T07:23:31;4.60;;;4.20;;
10365;SDS011;5229;41.820;23.490;2022-10-16T07:25:58;6.43;;;4.93;;
10365;SDS011;5229;41.820;23.490;2022-10-16T07:28:25;7.70;;;4.57;;
10365;SDS011;5229;41.820;23.490;2022-10-16T07:30:52;4.80;;;4.30;;
10365;SDS011;5229;41.820;23.490;2022-10-16T07:33:19;5.20;;;4.70;;
10365;SDS011;5229;41.820;23.490;2022-10-16T07:35:50;6.73;;;5.87;;
10365;SDS011;5229;41.820;23.490;2022-10-16T07:38:19;7.47;;;5.90;;
10365;SDS011;5229;41.820;23.490;2022-10-16T07:40:46;8.30;;;6.93;;
10365;SDS011;5229;41.820;23.490;2022-10-16T07:43:13;9.87;;;7.00;;
10365;SDS011;5229;41.820;23.490;2022-10-16T07:45:47;11.13;;;7.60;;
10365;SDS011;5229;41.820;23.490;2022-10-16T07:48:14;10.03;;;9.03;;
10365;SDS011;5229;41.820;23.490;2022-10-16T07:50:42;14.40;;;10.70;;
10365;SDS011;5229;41.820;23.490;2022-10-16T07:53:08;10.87;;;9.77;;
10365;SDS011;5229;41.820;23.490;2022-10-16T07:55:37;9.80;;;8.80;;
10365;SDS011;5229;41.820;23.490;2022-10-16T07:58:04;10.63;;;9.07;;
10365;SDS011;5229;41.820;23.490;2022-10-16T08:00:32;9.97;;;8.37;;
10365;SDS011;5229;41.820;23.490;2022-10-16T08:02:59;8.00;;;7.10;;
10365;SDS011;5229;41.820;23.490;2022-10-16T08:05:26;7.23;;;6.40;;
10365;SDS011;5229;41.820;23.490;2022-10-16T08:07:53;8.57;;;6.20;;
10365;SDS011;5229;41.820;23.490;2022-10-16T08:10:21;6.77;;;6.07;;
10365;SDS011;5229;41.820;23.490;2022-10-16T08:12:51;6.10;;;5.50;;
10365;SDS011;5229;41.820;23.490;2022-10-16T08:15:18;6.27;;;5.17;;
10365;SDS011;5229;41.820;23.490;2022-10-16T08:17:53;7.80;;;7.10;;
10365;SDS011;5229;41.820;23.490;2022-10-16T08:20:20;10.10;;;6.10;;
10365;SDS011;5229;41.820;23.490;2022-10-16T08:22:47;5.87;;;5.33;;
10365;SDS011;5229;41.820;23.490;2022-10-16T08:25:14;6.63;;;6.03;;
10365;SDS011;5229;41.820;23.490;2022-10-16T08:27:41;8.03;;;6.60;;
10365;SDS011;5229;41.820;23.490;2022-10-16T08:30:10;5.83;;;5.23;;
10365;SDS011;5229;41.820;23.490;2022-10-16T08:32:37;8.27;;;5.23;;
10365;SDS011;5229;41.820;23.490;2022-10-16T08:35:04;6.03;;;4.40;;
10365;SDS011;5229;41.820;23.490;2022-10-16T08:37:31;5.40;;;4.90;;
10365;SDS011;5229;41.820;23.490;2022-10-16T08:39:58;4.73;;;4.33;;
10365;SDS011;5229;41.820;23.490;2022-10-16T08:42:29;4.63;;;4.23;;
10365;SDS011;5229;41.820;23.490;2022-10-16T08:48:00;5.83;;;4.30;;
10365;SDS011;5229;41.820;23.490;2022-10-16T08:50:40;4.70;;;4.27;;
10365;SDS011;5229;41.820;23.490;2022-10-16T08:53:09;3.77;;;3.47;;
10365;SDS011;5229;41.820;23.490;2022-10-16T08:55:42;4.00;;;3.50;;
10365;SDS011;5229;41.820;23.490;2022-10-16T08:58:12;4.40;;;3.30;;
10365;SDS011;5229;41.820;23.490;2022-10-16T09:00:42;6.60;;;3.77;;
10365;SDS011;5229;41.820;23.490;2022-10-16T09:03:14;5.17;;;3.40;;
10365;SDS011;5229;41.820;23.490;2022-10-16T09:05:51;3.10;;;2.83;;
10365;SDS011;5229;41.820;23.490;2022-10-16T09:08:26;4.53;;;4.13;;
10365;SDS011;5229;41.820;23.490;2022-10-16T09:10:59;3.40;;;3.10;;
10365;SDS011;5229;41.820;23.490;2022-10-16T09:13:34;4.90;;;4.03;;
10365;SDS011;5229;41.820;23.490;2022-10-16T09:16:12;4.07;;;3.35;;
10365;SDS011;5229;41.820;23.490;2022-10-16T09:18:48;3.30;;;3.00;;
10365;SDS011;5229;41.820;23.490;2022-10-16T09:21:21;2.67;;;2.47;;
10365;SDS011;5229;41.820;23.490;2022-10-16T09:23:51;3.42;;;3.10;;
10365;SDS011;5229;41.820;23.490;2022-10-16T09:26:20;3.13;;;2.83;;
10365;SDS011;5229;41.820;23.490;2022-10-16T09:28:47;4.30;;;3.15;;
10365;SDS011;5229;41.820;23.490;2022-10-16T09:31:19;3.88;;;3.28;;
10365;SDS011;5229;41.820;23.490;2022-10-16T09:33:48;3.72;;;2.80;;
10365;SDS011;5229;41.820;23.490;2022-10-16T09:36:19;2.55;;;2.33;;
10365;SDS011;5229;41.820;23.490;2022-10-16T09:38:47;3.03;;;2.83;;
10365;SDS011;5229;41.820;23.490;2022-10-16T09:41:16;2.55;;;2.35;;
10365;SDS011;5229;41.820;23.490;2022-10-16T09:43:48;2.65;;;2.45;;
10365;SDS011;5229;41.820;23.490;2022-10-16T09:46:24;2.70;;;2.50;;
10365;SDS011;5229;41.820;23.490;2022-10-16T09:48:54;3.55;;;1.90;;
10365;SDS011;5229;41.820;23.490;2022-10-16T09:51:24;1.60;;;1.50;;
10365;SDS011;5229;41.820;23.490;2022-10-16T09:53:57;1.70;;;1.60;;
10365;SDS011;5229;41.820;23.490;2022-10-16T09:56:26;3.10;;;1.90;;
10365;SDS011;5229;41.820;23.490;2022-10-16T09:58:54;1.70;;;1.60;;
10365;SDS011;5229;41.820;23.490;2022-10-16T10:01:26;1.73;;;1.63;;
10365;SDS011;5229;41.820;23.490;2022-10-16T10:03:57;1.95;;;1.70;;
10365;SDS011;5229;41.820;23.490;2022-10-16T10:09:00;1.50;;;1.40;;
10365;SDS011;5229;41.820;23.490;2022-10-16T10:14:23;1.83;;;1.73;;
10365;SDS011;5229;41.820;23.490;2022-10-16T10:17:02;2.70;;;2.45;;
10365;SDS011;5229;41.820;23.490;2022-10-16T10:19:47;2.67;;;1.70;;
10365;SDS011;5229;41.820;23.490;2022-10-16T10:22:17;1.95;;;1.75;;
10365;SDS011;5229;41.820;23.490;2022-10-16T10:24:54;1.92;;;1.67;;
10365;SDS011;5229;41.820;23.490;2022-10-16T10:27:38;2.10;;;1.70;;
10365;SDS011;5229;41.820;23.490;2022-10-16T10:30:15;1.98;;;1.80;;
10365;SDS011;5229;41.820;23.490;2022-10-16T10:32:50;1.83;;;1.67;;
10365;SDS011;5229;41.820;23.490;2022-10-16T10:35:35;1.00;;;1.00;;
10365;SDS011;5229;41.820;23.490;2022-10-16T10:38:16;1.55;;;1.38;;
10365;SDS011;5229;41.820;23.490;2022-10-16T10:40:55;1.67;;;1.27;;
10365;SDS011;5229;41.820;23.490;2022-10-16T10:43:36;1.52;;;1.42;;
10365;SDS011;5229;41.820;23.490;2022-10-16T10:46:14;1.10;;;1.05;;
10365;SDS011;5229;41.820;23.490;2022-10-16T10:48:54;1.13;;;1.13;;
10365;SDS011;5229;41.820;23.490;2022-10-16T10:51:31;1.30;;;1.20;;
10365;SDS011;5229;41.820;23.490;2022-10-16T10:54:10;1.50;;;1.40;;
10365;SDS011;5229;41.820;23.490;2022-10-16T10:56:47;1.95;;;1.55;;
10365;SDS011;5229;41.820;23.490;2022-10-16T10:59:28;1.80;;;1.30;;
10365;SDS011;5229;41.820;23.490;2022-10-16T11:02:04;1.85;;;1.73;;
10365;SDS011;5229;41.820;23.490;2022-10-16T11:04:45;1.40;;;1.30;;
10365;SDS011;5229;41.820;23.490;2022-10-16T11:07:24;1.95;;;1.70;;
10365;SDS011;5229;41.820;23.490;2022-10-16T11:09:55;1.75;;;1.60;;
10365;SDS011;5229;41.820;23.490;2022-10-16T11:12:29;1.40;;;1.30;;
10365;SDS011;5229;41.820;23.490;2022-10-16T11:15:01;2.33;;;1.65;;
10365;SDS011;5229;41.820;23.490;2022-10-16T11:17:31;2.30;;;1.60;;
10365;SDS011;5229;41.820;23.490;2022-10-16T11:20:05;2.05;;;1.85;;
10365;SDS011;5229;41.820;23.490;2022-10-16T11:22:41;3.08;;;1.40;;
10365;SDS011;5229;41.820;23.490;2022-10-16T11:25:13;1.75;;;1.50;;
10365;SDS011;5229;41.820;23.490;2022-10-16T11:27:47;1.58;;;1.45;;
10365;SDS011;5229;41.820;23.490;2022-10-16T11:30:18;1.60;;;1.50;;
10365;SDS011;5229;41.820;23.490;2022-10-16T11:33:01;2.15;;;1.60;;
10365;SDS011;5229;41.820;23.490;2022-10-16T11:35:47;1.58;;;1.38;;
10365;SDS011;5229;41.820;23.490;2022-10-16T11:38:20;1.85;;;1.40;;
10365;SDS011;5229;41.820;23.490;2022-10-16T11:40:54;1.42;;;1.33;;
10365;SDS011;5229;41.820;23.490;2022-10-16T11:43:26;1.70;;;1.60;;
10365;SDS011;5229;41.820;23.490;2022-10-16T11:46:00;1.40;;;1.30;;
10365;SDS011;5229;41.820;23.490;2022-10-16T11:48:31;1.97;;;1.77;;
10365;SDS011;5229;41.820;23.490;2022-10-16T11:51:07;2.10;;;1.73;;
10365;SDS011;5229;41.820;23.490;2022-10-16T11:53:43;1.70;;;1.60;;
10365;SDS011;5229;41.820;23.490;2022-10-16T11:56:15;1.50;;;1.40;;
10365;SDS011;5229;41.820;23.490;2022-10-16T11:58:46;2.07;;;1.87;;
10365;SDS011;5229;41.820;23.490;2022-10-16T12:01:21;3.07;;;1.57;;
10365;SDS011;5229;41.820;23.490;2022-10-16T12:03:56;1.67;;;1.20;;
10365;SDS011;5229;41.820;23.490;2022-10-16T12:06:33;1.67;;;1.30;;
10365;SDS011;5229;41.820;23.490;2022-10-16T12:09:03;1.33;;;1.20;;
10365;SDS011;5229;41.820;23.490;2022-10-16T12:11:32;2.40;;;1.67;;
10365;SDS011;5229;41.820;23.490;2022-10-16T12:14:05;1.30;;;1.20;;
10365;SDS011;5229;41.820;23.490;2022-10-16T12:16:50;1.50;;;1.40;;
10365;SDS011;5229;41.820;23.490;2022-10-16T12:19:19;1.60;;;1.50;;
10365;SDS011;5229;41.820;23.490;2022-10-16T12:21:48;1.57;;;1.43;;
10365;SDS011;5229;41.820;23.490;2022-10-16T12:24:32;1.60;;;1.50;;
10365;SDS011;5229;41.820;23.490;2022-10-16T12:27:01;1.90;;;1.80;;
10365;SDS011;5229;41.820;23.490;2022-10-16T12:29:32;2.10;;;1.63;;
10365;SDS011;5229;41.820;23.490;2022-10-16T12:32:02;1.73;;;1.50;;
10365;SDS011;5229;41.820;23.490;2022-10-16T12:34:33;1.90;;;1.70;;
10365;SDS011;5229;41.820;23.490;2022-10-16T12:37:14;1.67;;;1.50;;
10365;SDS011;5229;41.820;23.490;2022-10-16T12:39:48;1.77;;;1.67;;
10365;SDS011;5229;41.820;23.490;2022-10-16T12:42:20;1.93;;;1.83;;
10365;SDS011;5229;41.820;23.490;2022-10-16T12:44:59;1.70;;;1.60;;
10365;SDS011;5229;41.820;23.490;2022-10-16T12:47:35;2.27;;;1.80;;
10365;SDS011;5229;41.820;23.490;2022-10-16T12:50:22;1.67;;;1.57;;
10365;SDS011;5229;41.820;23.490;2022-10-16T12:52:55;1.87;;;1.70;;
10365;SDS011;5229;41.820;23.490;2022-10-16T12:55:22;2.13;;;1.60;;
10365;SDS011;5229;41.820;23.490;2022-10-16T12:57:57;2.00;;;1.90;;
10365;SDS011;5229;41.820;23.490;2022-10-16T13:00:33;2.43;;;2.23;;
10365;SDS011;5229;41.820;23.490;2022-10-16T13:03:31;1.93;;;1.80;;
10365;SDS011;5229;41.820;23.490;2022-10-16T13:06:14;2.00;;;1.80;;
10365;SDS011;5229;41.820;23.490;2022-10-16T13:08:57;2.73;;;2.13;;
10365;SDS011;5229;41.820;23.490;2022-10-16T13:11:43;2.30;;;2.10;;
10365;SDS011;5229;41.820;23.490;2022-10-16T13:14:39;2.13;;;1.90;;
10365;SDS011;5229;41.820;23.490;2022-10-16T13:17:29;2.30;;;1.97;;
10365;SDS011;5229;41.820;23.490;2022-10-16T13:20:03;2.13;;;1.93;;
10365;SDS011;5229;41.820;23.490;2022-10-16T13:22:39;4.60;;;2.20;;
10365;SDS011;5229;41.820;23.490;2022-10-16T13:25:20;3.87;;;2.13;;
10365;SDS011;5229;41.820;23.490;2022-10-16T13:27:55;2.73;;;2.50;;
10365;SDS011;5229;41.820;23.490;2022-10-16T13:30:24;2.10;;;1.90;;
10365;SDS011;5229;41.820;23.490;2022-10-16T13:32:54;2.57;;;2.37;;
10365;SDS011;5229;41.820;23.490;2022-10-16T13:35:26;2.30;;;2.10;;
10365;SDS011;5229;41.820;23.490;2022-10-16T13:38:04;2.13;;;1.97;;
10365;SDS011;5229;41.820;23.490;2022-10-16T13:40:50;1.87;;;1.77;;
10365;SDS011;5229;41.820;23.490;2022-10-16T13:43:20;2.00;;;1.90;;
10365;SDS011;5229;41.820;23.490;2022-10-16T13:45:58;2.00;;;1.80;;
10365;SDS011;5229;41.820;23.490;2022-10-16T13:48:27;2.73;;;2.10;;
10365;SDS011;5229;41.820;23.490;2022-10-16T13:51:00;2.50;;;1.90;;
10365;SDS011;5229;41.820;23.490;2022-10-16T13:53:33;2.57;;;2.20;;
10365;SDS011;5229;41.820;23.490;2022-10-16T13:56:03;3.93;;;2.10;;
10365;SDS011;5229;41.820;23.490;2022-10-16T13:58:31;2.80;;;2.10;;
10365;SDS011;5229;41.820;23.490;2022-10-16T14:00:59;1.90;;;1.70;;
10365;SDS011;5229;41.820;23.490;2022-10-16T14:03:27;3.17;;;2.17;;
10365;SDS011;5229;41.820;23.490;2022-10-16T14:05:56;2.13;;;2.00;;
10365;SDS011;5229;41.820;23.490;2022-10-16T14:08:26;2.77;;;2.10;;
10365;SDS011;5229;41.820;23.490;2022-10-16T14:10:55;4.20;;;2.10;;
10365;SDS011;5229;41.820;23.490;2022-10-16T14:13:29;3.00;;;1.90;;
10365;SDS011;5229;41.820;23.490;2022-10-16T14:15:58;2.03;;;1.87;;
10365;SDS011;5229;41.820;23.490;2022-10-16T14:18:28;1.80;;;1.70;;
10365;SDS011;5229;41.820;23.490;2022-10-16T14:21:02;2.83;;;1.93;;
10365;SDS011;5229;41.820;23.490;2022-10-16T14:23:29;3.23;;;1.83;;
10365;SDS011;5229;41.820;23.490;2022-10-16T14:26:05;3.00;;;1.87;;
10365;SDS011;5229;41.820;23.490;2022-10-16T14:28:40;2.40;;;2.20;;
10365;SDS011;5229;41.820;23.490;2022-10-16T14:33:51;2.60;;;2.40;;
10365;SDS011;5229;41.820;23.490;2022-10-16T14:36:18;3.53;;;2.60;;
10365;SDS011;5229;41.820;23.490;2022-10-16T14:38:48;4.07;;;2.40;;
10365;SDS011;5229;41.820;23.490;2022-10-16T14:41:20;3.03;;;2.33;;
10365;SDS011;5229;41.820;23.490;2022-10-16T14:43:51;2.53;;;2.33;;
10365;SDS011;5229;41.820;23.490;2022-10-16T14:46:21;2.53;;;2.23;;
10365;SDS011;5229;41.820;23.490;2022-10-16T14:48:56;3.20;;;2.20;;
10365;SDS011;5229;41.820;23.490;2022-10-16T14:51:27;2.87;;;2.23;;
10365;SDS011;5229;41.820;23.490;2022-10-16T14:53:54;2.97;;;2.70;;
10365;SDS011;5229;41.820;23.490;2022-10-16T14:56:22;3.20;;;2.80;;
10365;SDS011;5229;41.820;23.490;2022-10-16T14:58:51;3.40;;;2.80;;
10365;SDS011;5229;41.820;23.490;2022-10-16T15:01:19;3.17;;;2.33;;
10365;SDS011;5229;41.820;23.490;2022-10-16T15:03:46;4.70;;;2.33;;
10365;SDS011;5229;41.820;23.490;2022-10-16T15:06:13;2.60;;;2.10;;
10365;SDS011;5229;41.820;23.490;2022-10-16T15:08:41;2.27;;;2.07;;
10365;SDS011;5229;41.820;23.490;2022-10-16T15:11:09;3.10;;;2.30;;
10365;SDS011;5229;41.820;23.490;2022-10-16T15:13:38;2.47;;;2.20;;
10365;SDS011;5229;41.820;23.490;2022-10-16T15:16:08;5.10;;;2.13;;
10365;SDS011;5229;41.820;23.490;2022-10-16T15:18:38;2.63;;;2.13;;
10365;SDS011;5229;41.820;23.490;2022-10-16T15:21:05;2.17;;;1.90;;